sensor_id;sensor_type;location;lat;lon;timestamp;P1;durP1;ratioP1;P2;durP2;ratioP2
7971;SDS011;4031;49.758;6.120;2023-04-25T00:00:28;16.83;;;10.30;;
7971;SDS011;4031;49.758;6.120;2023-04-25T00:02:54;18.43;;;11.50;;
7971;SDS011;4031;49.758;6.120;2023-04-25T00:05:24;20.13;;;10.90;;
7971;SDS011;4031;49.758;6.120;2023-04-25T00:07:51;15.60;;;9.90;;
7971;SDS011;4031;49.758;6.120;2023-04-25T00:10:17;16.23;;;10.83;;
7971;SDS011;4031;49.758;6.120;2023-04-25T00:12:44;15.77;;;10.20;;
7971;SDS011;4031;49.758;6.120;2023-04-25T00:15:10;16.80;;;9.90;;
7971;SDS011;4031;49.758;6.120;2023-04-25T00:17:37;17.33;;;10.47;;
7971;SDS011;4031;49.758;6.120;2023-04-25T00:20:03;17.40;;;11.70;;
7971;SDS011;4031;49.758;6.120;2023-04-25T00:22:30;15.87;;;10.67;;
7971;SDS011;4031;49.758;6.120;2023-04-25T00:24:56;18.53;;;11.87;;
7971;SDS011;4031;49.758;6.120;2023-04-25T00:27:25;18.17;;;10.77;;
7971;SDS011;4031;49.758;6.120;2023-04-25T00:29:51;13.87;;;9.40;;
7971;SDS011;4031;49.758;6.120;2023-04-25T00:32:17;16.53;;;10.43;;
7971;SDS011;4031;49.758;6.120;2023-04-25T00:34:42;13.30;;;9.27;;
7971;SDS011;4031;49.758;6.120;2023-04-25T00:37:08;14.27;;;9.13;;
7971;SDS011;4031;49.758;6.120;2023-04-25T00:39:35;11.53;;;8.17;;
7971;SDS011;4031;49.758;6.120;2023-04-25T00:42:01;14.23;;;9.63;;
7971;SDS011;4031;49.758;6.120;2023-04-25T00:44:28;14.17;;;8.50;;
7971;SDS011;4031;49.758;6.120;2023-04-25T00:46:55;10.93;;;7.63;;
7971;SDS011;4031;49.758;6.120;2023-04-25T00:49:20;10.63;;;7.57;;
7971;SDS011;4031;49.758;6.120;2023-04-25T00:51:46;10.63;;;7.33;;
7971;SDS011;4031;49.758;6.120;2023-04-25T00:54:13;11.70;;;8.40;;
7971;SDS011;4031;49.758;6.120;2023-04-25T00:56:39;10.03;;;7.40;;
7971;SDS011;4031;49.758;6.120;2023-04-25T00:59:05;10.80;;;6.73;;
7971;SDS011;4031;49.758;6.120;2023-04-25T01:01:31;11.80;;;8.07;;
7971;SDS011;4031;49.758;6.120;2023-04-25T01:03:58;9.00;;;7.00;;
7971;SDS011;4031;49.758;6.120;2023-04-25T01:06:24;8.10;;;7.20;;
7971;SDS011;4031;49.758;6.120;2023-04-25T01:08:51;10.27;;;7.10;;
7971;SDS011;4031;49.758;6.120;2023-04-25T01:11:17;11.00;;;7.00;;
7971;SDS011;4031;49.758;6.120;2023-04-25T01:13:43;7.30;;;5.43;;
7971;SDS011;4031;49.758;6.120;2023-04-25T01:16:09;8.63;;;6.20;;
7971;SDS011;4031;49.758;6.120;2023-04-25T01:18:34;9.17;;;6.43;;
7971;SDS011;4031;49.758;6.120;2023-04-25T01:21:12;8.00;;;5.63;;
7971;SDS011;4031;49.758;6.120;2023-04-25T01:23:39;8.07;;;6.60;;
7971;SDS011;4031;49.758;6.120;2023-04-25T01:26:06;9.37;;;6.47;;
7971;SDS011;4031;49.758;6.120;2023-04-25T01:28:35;9.23;;;5.67;;
7971;SDS011;4031;49.758;6.120;2023-04-25T01:31:01;9.53;;;6.67;;
7971;SDS011;4031;49.758;6.120;2023-04-25T01:33:27;10.60;;;7.40;;
7971;SDS011;4031;49.758;6.120;2023-04-25T01:35:53;7.10;;;6.20;;
7971;SDS011;4031;49.758;6.120;2023-04-25T01:38:19;8.90;;;6.50;;
7971;SDS011;4031;49.758;6.120;2023-04-25T01:40:45;11.30;;;6.80;;
7971;SDS011;4031;49.758;6.120;2023-04-25T01:43:12;10.20;;;6.97;;
7971;SDS011;4031;49.758;6.120;2023-04-25T01:45:39;15.13;;;7.90;;
7971;SDS011;4031;49.758;6.120;2023-04-25T01:48:09;9.97;;;6.87;;
7971;SDS011;4031;49.758;6.120;2023-04-25T01:50:37;9.80;;;6.93;;
7971;SDS011;4031;49.758;6.120;2023-04-25T01:53:04;8.80;;;6.23;;
7971;SDS011;4031;49.758;6.120;2023-04-25T01:55:30;13.23;;;6.83;;
7971;SDS011;4031;49.758;6.120;2023-04-25T01:57:56;13.57;;;7.40;;
7971;SDS011;4031;49.758;6.120;2023-04-25T02:00:22;11.03;;;6.97;;
7971;SDS011;4031;49.758;6.120;2023-04-25T02:02:48;7.27;;;6.00;;
7971;SDS011;4031;49.758;6.120;2023-04-25T02:05:15;11.50;;;6.47;;
7971;SDS011;4031;49.758;6.120;2023-04-25T02:07:42;7.93;;;5.57;;
7971;SDS011;4031;49.758;6.120;2023-04-25T02:10:08;9.07;;;6.00;;
7971;SDS011;4031;49.758;6.120;2023-04-25T02:12:35;9.37;;;6.07;;
7971;SDS011;4031;49.758;6.120;2023-04-25T02:15:01;11.97;;;6.63;;
7971;SDS011;4031;49.758;6.120;2023-04-25T02:17:27;8.80;;;6.40;;
7971;SDS011;4031;49.758;6.120;2023-04-25T02:19:53;10.70;;;6.43;;
7971;SDS011;4031;49.758;6.120;2023-04-25T02:22:19;8.33;;;5.73;;
7971;SDS011;4031;49.758;6.120;2023-04-25T02:24:45;9.23;;;6.23;;
7971;SDS011;4031;49.758;6.120;2023-04-25T02:27:11;8.13;;;6.00;;
7971;SDS011;4031;49.758;6.120;2023-04-25T02:29:37;9.30;;;6.30;;
7971;SDS011;4031;49.758;6.120;2023-04-25T02:32:03;7.07;;;5.90;;
7971;SDS011;4031;49.758;6.120;2023-04-25T02:34:29;7.23;;;5.67;;
7971;SDS011;4031;49.758;6.120;2023-04-25T02:36:55;9.80;;;6.00;;
7971;SDS011;4031;49.758;6.120;2023-04-25T02:39:21;8.43;;;7.20;;
7971;SDS011;4031;49.758;6.120;2023-04-25T02:41:47;8.67;;;6.30;;
7971;SDS011;4031;49.758;6.120;2023-04-25T02:44:12;9.40;;;6.20;;
7971;SDS011;4031;49.758;6.120;2023-04-25T02:46:38;6.67;;;5.70;;
7971;SDS011;4031;49.758;6.120;2023-04-25T02:49:04;9.10;;;6.17;;
7971;SDS011;4031;49.758;6.120;2023-04-25T02:51:30;10.30;;;5.87;;
7971;SDS011;4031;49.758;6.120;2023-04-25T02:53:56;11.40;;;6.80;;
7971;SDS011;4031;49.758;6.120;2023-04-25T02:56:21;8.67;;;6.00;;
7971;SDS011;4031;49.758;6.120;2023-04-25T02:58:47;10.30;;;5.90;;
7971;SDS011;4031;49.758;6.120;2023-04-25T03:01:13;7.80;;;6.00;;
7971;SDS011;4031;49.758;6.120;2023-04-25T03:03:39;8.50;;;5.70;;
7971;SDS011;4031;49.758;6.120;2023-04-25T03:06:05;7.57;;;5.40;;
7971;SDS011;4031;49.758;6.120;2023-04-25T03:08:30;8.17;;;5.37;;
7971;SDS011;4031;49.758;6.120;2023-04-25T03:10:57;9.17;;;5.87;;
7971;SDS011;4031;49.758;6.120;2023-04-25T03:13:23;9.40;;;5.80;;
7971;SDS011;4031;49.758;6.120;2023-04-25T03:15:49;8.70;;;5.53;;
7971;SDS011;4031;49.758;6.120;2023-04-25T03:18:15;9.80;;;6.83;;
7971;SDS011;4031;49.758;6.120;2023-04-25T03:20:41;7.53;;;5.83;;
7971;SDS011;4031;49.758;6.120;2023-04-25T03:23:07;8.07;;;5.90;;
7971;SDS011;4031;49.758;6.120;2023-04-25T03:25:33;9.77;;;6.80;;
7971;SDS011;4031;49.758;6.120;2023-04-25T03:27:59;10.60;;;6.63;;
7971;SDS011;4031;49.758;6.120;2023-04-25T03:30:24;12.87;;;7.13;;
7971;SDS011;4031;49.758;6.120;2023-04-25T03:32:50;13.10;;;6.90;;
7971;SDS011;4031;49.758;6.120;2023-04-25T03:35:16;7.80;;;5.53;;
7971;SDS011;4031;49.758;6.120;2023-04-25T03:37:41;9.03;;;6.40;;
7971;SDS011;4031;49.758;6.120;2023-04-25T03:40:10;9.93;;;5.80;;
7971;SDS011;4031;49.758;6.120;2023-04-25T03:42:36;8.67;;;6.33;;
7971;SDS011;4031;49.758;6.120;2023-04-25T03:45:02;9.17;;;6.77;;
7971;SDS011;4031;49.758;6.120;2023-04-25T03:47:28;6.87;;;5.47;;
7971;SDS011;4031;49.758;6.120;2023-04-25T03:49:54;7.73;;;5.50;;
7971;SDS011;4031;49.758;6.120;2023-04-25T03:52:20;10.27;;;5.90;;
7971;SDS011;4031;49.758;6.120;2023-04-25T03:54:46;7.17;;;4.30;;
7971;SDS011;4031;49.758;6.120;2023-04-25T03:57:11;8.10;;;5.77;;
7971;SDS011;4031;49.758;6.120;2023-04-25T03:59:37;10.80;;;6.63;;
7971;SDS011;4031;49.758;6.120;2023-04-25T04:02:03;6.70;;;5.00;;
7971;SDS011;4031;49.758;6.120;2023-04-25T04:04:29;9.00;;;5.33;;
7971;SDS011;4031;49.758;6.120;2023-04-25T04:06:55;10.67;;;5.50;;
7971;SDS011;4031;49.758;6.120;2023-04-25T04:09:20;8.60;;;6.10;;
7971;SDS011;4031;49.758;6.120;2023-04-25T04:11:46;9.27;;;6.30;;
7971;SDS011;4031;49.758;6.120;2023-04-25T04:14:12;9.00;;;6.17;;
7971;SDS011;4031;49.758;6.120;2023-04-25T04:16:38;7.67;;;5.40;;
7971;SDS011;4031;49.758;6.120;2023-04-25T04:19:04;9.03;;;6.40;;
7971;SDS011;4031;49.758;6.120;2023-04-25T04:21:30;9.63;;;6.90;;
7971;SDS011;4031;49.758;6.120;2023-04-25T04:23:56;12.83;;;7.20;;
7971;SDS011;4031;49.758;6.120;2023-04-25T04:26:24;9.20;;;6.80;;
7971;SDS011;4031;49.758;6.120;2023-04-25T04:28:51;10.53;;;6.40;;
7971;SDS011;4031;49.758;6.120;2023-04-25T04:31:19;9.67;;;5.73;;
7971;SDS011;4031;49.758;6.120;2023-04-25T04:33:47;13.10;;;7.23;;
7971;SDS011;4031;49.758;6.120;2023-04-25T04:36:13;8.67;;;6.10;;
7971;SDS011;4031;49.758;6.120;2023-04-25T04:38:39;11.10;;;5.80;;
7971;SDS011;4031;49.758;6.120;2023-04-25T04:41:06;9.80;;;6.33;;
7971;SDS011;4031;49.758;6.120;2023-04-25T04:43:32;9.73;;;5.70;;
7971;SDS011;4031;49.758;6.120;2023-04-25T04:46:01;12.30;;;6.17;;
7971;SDS011;4031;49.758;6.120;2023-04-25T04:48:29;10.07;;;6.77;;
7971;SDS011;4031;49.758;6.120;2023-04-25T04:50:58;9.90;;;6.50;;
7971;SDS011;4031;49.758;6.120;2023-04-25T04:53:23;11.13;;;7.63;;
7971;SDS011;4031;49.758;6.120;2023-04-25T04:55:49;11.90;;;7.10;;
7971;SDS011;4031;49.758;6.120;2023-04-25T04:58:15;11.77;;;6.57;;
7971;SDS011;4031;49.758;6.120;2023-04-25T05:00:40;10.10;;;6.73;;
7971;SDS011;4031;49.758;6.120;2023-04-25T05:03:06;12.37;;;7.77;;
7971;SDS011;4031;49.758;6.120;2023-04-25T05:05:32;12.70;;;7.33;;
7971;SDS011;4031;49.758;6.120;2023-04-25T05:07:58;12.07;;;7.10;;
7971;SDS011;4031;49.758;6.120;2023-04-25T05:10:24;9.23;;;6.80;;
7971;SDS011;4031;49.758;6.120;2023-04-25T05:12:50;11.90;;;7.90;;
7971;SDS011;4031;49.758;6.120;2023-04-25T05:15:16;11.10;;;7.13;;
7971;SDS011;4031;49.758;6.120;2023-04-25T05:17:42;15.40;;;7.90;;
7971;SDS011;4031;49.758;6.120;2023-04-25T05:20:07;10.93;;;7.37;;
7971;SDS011;4031;49.758;6.120;2023-04-25T05:22:34;11.60;;;7.00;;
7971;SDS011;4031;49.758;6.120;2023-04-25T05:25:00;9.90;;;7.17;;
7971;SDS011;4031;49.758;6.120;2023-04-25T05:27:26;10.37;;;7.70;;
7971;SDS011;4031;49.758;6.120;2023-04-25T05:29:52;9.90;;;7.07;;
7971;SDS011;4031;49.758;6.120;2023-04-25T05:32:17;9.07;;;7.23;;
7971;SDS011;4031;49.758;6.120;2023-04-25T05:34:43;12.20;;;8.10;;
7971;SDS011;4031;49.758;6.120;2023-04-25T05:37:09;14.73;;;9.00;;
7971;SDS011;4031;49.758;6.120;2023-04-25T05:39:35;13.30;;;8.70;;
7971;SDS011;4031;49.758;6.120;2023-04-25T05:42:00;10.07;;;7.60;;
7971;SDS011;4031;49.758;6.120;2023-04-25T05:44:26;12.50;;;8.20;;
7971;SDS011;4031;49.758;6.120;2023-04-25T05:46:53;10.10;;;7.17;;
7971;SDS011;4031;49.758;6.120;2023-04-25T05:49:18;12.20;;;7.50;;
7971;SDS011;4031;49.758;6.120;2023-04-25T05:51:44;9.70;;;7.80;;
7971;SDS011;4031;49.758;6.120;2023-04-25T05:54:10;10.70;;;7.53;;
7971;SDS011;4031;49.758;6.120;2023-04-25T05:56:36;9.60;;;7.57;;
7971;SDS011;4031;49.758;6.120;2023-04-25T05:59:01;13.63;;;8.10;;
7971;SDS011;4031;49.758;6.120;2023-04-25T06:01:28;14.07;;;7.90;;
7971;SDS011;4031;49.758;6.120;2023-04-25T06:03:53;11.00;;;8.47;;
7971;SDS011;4031;49.758;6.120;2023-04-25T06:06:19;9.40;;;5.30;;
7971;SDS011;4031;49.758;6.120;2023-04-25T06:08:45;12.37;;;8.03;;
7971;SDS011;4031;49.758;6.120;2023-04-25T06:11:11;13.77;;;7.80;;
7971;SDS011;4031;49.758;6.120;2023-04-25T06:13:36;10.03;;;5.40;;
7971;SDS011;4031;49.758;6.120;2023-04-25T06:16:02;5.73;;;4.00;;
7971;SDS011;4031;49.758;6.120;2023-04-25T06:18:28;8.70;;;5.83;;
7971;SDS011;4031;49.758;6.120;2023-04-25T06:20:54;9.33;;;6.50;;
7971;SDS011;4031;49.758;6.120;2023-04-25T06:23:20;9.47;;;4.30;;
7971;SDS011;4031;49.758;6.120;2023-04-25T06:25:45;7.90;;;4.63;;
7971;SDS011;4031;49.758;6.120;2023-04-25T06:28:11;6.40;;;4.23;;
7971;SDS011;4031;49.758;6.120;2023-04-25T06:30:37;8.80;;;5.20;;
7971;SDS011;4031;49.758;6.120;2023-04-25T06:33:02;11.80;;;6.13;;
7971;SDS011;4031;49.758;6.120;2023-04-25T06:35:28;9.40;;;5.83;;
7971;SDS011;4031;49.758;6.120;2023-04-25T06:37:54;15.07;;;6.57;;
7971;SDS011;4031;49.758;6.120;2023-04-25T06:40:20;7.20;;;4.53;;
7971;SDS011;4031;49.758;6.120;2023-04-25T06:42:45;13.73;;;5.97;;
7971;SDS011;4031;49.758;6.120;2023-04-25T06:45:11;7.47;;;5.60;;
7971;SDS011;4031;49.758;6.120;2023-04-25T06:47:37;8.27;;;4.57;;
7971;SDS011;4031;49.758;6.120;2023-04-25T06:50:03;5.50;;;4.63;;
7971;SDS011;4031;49.758;6.120;2023-04-25T06:52:29;4.93;;;4.20;;
7971;SDS011;4031;49.758;6.120;2023-04-25T06:54:55;12.07;;;4.43;;
7971;SDS011;4031;49.758;6.120;2023-04-25T06:57:21;9.80;;;5.00;;
7971;SDS011;4031;49.758;6.120;2023-04-25T06:59:46;11.70;;;5.00;;
7971;SDS011;4031;49.758;6.120;2023-04-25T07:02:12;6.73;;;4.30;;
7971;SDS011;4031;49.758;6.120;2023-04-25T07:04:38;6.43;;;4.80;;
7971;SDS011;4031;49.758;6.120;2023-04-25T07:07:03;11.33;;;5.43;;
7971;SDS011;4031;49.758;6.120;2023-04-25T07:09:29;11.23;;;5.60;;
7971;SDS011;4031;49.758;6.120;2023-04-25T07:11:58;5.33;;;4.20;;
7971;SDS011;4031;49.758;6.120;2023-04-25T07:14:26;7.13;;;5.70;;
7971;SDS011;4031;49.758;6.120;2023-04-25T07:16:52;8.60;;;5.27;;
7971;SDS011;4031;49.758;6.120;2023-04-25T07:19:18;8.17;;;5.80;;
7971;SDS011;4031;49.758;6.120;2023-04-25T07:21:44;9.10;;;4.90;;
7971;SDS011;4031;49.758;6.120;2023-04-25T07:24:09;11.33;;;5.67;;
7971;SDS011;4031;49.758;6.120;2023-04-25T07:26:35;8.70;;;6.07;;
7971;SDS011;4031;49.758;6.120;2023-04-25T07:29:01;15.57;;;6.50;;
7971;SDS011;4031;49.758;6.120;2023-04-25T07:31:27;8.20;;;5.50;;
7971;SDS011;4031;49.758;6.120;2023-04-25T07:33:53;12.37;;;5.80;;
7971;SDS011;4031;49.758;6.120;2023-04-25T07:36:18;13.63;;;5.50;;
7971;SDS011;4031;49.758;6.120;2023-04-25T07:38:44;8.57;;;5.50;;
7971;SDS011;4031;49.758;6.120;2023-04-25T07:41:10;7.53;;;5.30;;
7971;SDS011;4031;49.758;6.120;2023-04-25T07:43:36;9.90;;;6.27;;
7971;SDS011;4031;49.758;6.120;2023-04-25T07:46:01;10.57;;;6.00;;
7971;SDS011;4031;49.758;6.120;2023-04-25T07:48:27;10.40;;;6.27;;
7971;SDS011;4031;49.758;6.120;2023-04-25T07:50:53;9.23;;;5.33;;
7971;SDS011;4031;49.758;6.120;2023-04-25T07:53:19;10.70;;;5.80;;
7971;SDS011;4031;49.758;6.120;2023-04-25T07:55:44;9.90;;;6.53;;
7971;SDS011;4031;49.758;6.120;2023-04-25T07:58:10;12.83;;;5.63;;
7971;SDS011;4031;49.758;6.120;2023-04-25T08:00:36;7.33;;;5.00;;
7971;SDS011;4031;49.758;6.120;2023-04-25T08:03:02;12.83;;;6.43;;
7971;SDS011;4031;49.758;6.120;2023-04-25T08:05:28;10.40;;;6.20;;
7971;SDS011;4031;49.758;6.120;2023-04-25T08:07:54;7.10;;;4.97;;
7971;SDS011;4031;49.758;6.120;2023-04-25T08:10:21;10.53;;;6.00;;
7971;SDS011;4031;49.758;6.120;2023-04-25T08:12:48;9.03;;;5.53;;
7971;SDS011;4031;49.758;6.120;2023-04-25T08:15:14;5.77;;;5.27;;
7971;SDS011;4031;49.758;6.120;2023-04-25T08:17:40;10.67;;;5.53;;
7971;SDS011;4031;49.758;6.120;2023-04-25T08:20:06;10.53;;;5.90;;
7971;SDS011;4031;49.758;6.120;2023-04-25T08:22:32;9.40;;;5.20;;
7971;SDS011;4031;49.758;6.120;2023-04-25T08:24:58;7.77;;;5.50;;
7971;SDS011;4031;49.758;6.120;2023-04-25T08:27:24;9.97;;;5.47;;
7971;SDS011;4031;49.758;6.120;2023-04-25T08:29:50;5.00;;;3.97;;
7971;SDS011;4031;49.758;6.120;2023-04-25T08:32:16;12.00;;;5.87;;
7971;SDS011;4031;49.758;6.120;2023-04-25T08:34:43;10.80;;;5.00;;
7971;SDS011;4031;49.758;6.120;2023-04-25T08:37:09;8.73;;;5.00;;
7971;SDS011;4031;49.758;6.120;2023-04-25T08:39:35;8.70;;;4.93;;
7971;SDS011;4031;49.758;6.120;2023-04-25T08:42:05;8.00;;;4.87;;
7971;SDS011;4031;49.758;6.120;2023-04-25T08:44:35;8.47;;;5.67;;
7971;SDS011;4031;49.758;6.120;2023-04-25T08:47:04;8.83;;;4.83;;
7971;SDS011;4031;49.758;6.120;2023-04-25T08:49:34;10.60;;;5.20;;
7971;SDS011;4031;49.758;6.120;2023-04-25T08:52:00;7.40;;;5.53;;
7971;SDS011;4031;49.758;6.120;2023-04-25T08:54:31;8.30;;;4.77;;
7971;SDS011;4031;49.758;6.120;2023-04-25T08:56:57;7.20;;;4.50;;
7971;SDS011;4031;49.758;6.120;2023-04-25T08:59:29;10.13;;;5.07;;
7971;SDS011;4031;49.758;6.120;2023-04-25T09:01:57;7.17;;;4.80;;
7971;SDS011;4031;49.758;6.120;2023-04-25T09:04:23;6.20;;;4.17;;
7971;SDS011;4031;49.758;6.120;2023-04-25T09:06:49;5.63;;;4.17;;
7971;SDS011;4031;49.758;6.120;2023-04-25T09:09:15;9.33;;;5.20;;
7971;SDS011;4031;49.758;6.120;2023-04-25T09:11:41;4.87;;;4.10;;
7971;SDS011;4031;49.758;6.120;2023-04-25T09:14:14;6.60;;;4.73;;
7971;SDS011;4031;49.758;6.120;2023-04-25T09:16:58;12.40;;;5.00;;
7971;SDS011;4031;49.758;6.120;2023-04-25T09:19:29;11.10;;;5.03;;
7971;SDS011;4031;49.758;6.120;2023-04-25T09:21:57;6.67;;;4.73;;
7971;SDS011;4031;49.758;6.120;2023-04-25T09:27:07;5.93;;;4.30;;
7971;SDS011;4031;49.758;6.120;2023-04-25T09:29:36;4.10;;;3.53;;
7971;SDS011;4031;49.758;6.120;2023-04-25T09:32:10;7.47;;;4.77;;
7971;SDS011;4031;49.758;6.120;2023-04-25T09:34:43;5.30;;;4.77;;
7971;SDS011;4031;49.758;6.120;2023-04-25T09:37:18;6.00;;;4.10;;
7971;SDS011;4031;49.758;6.120;2023-04-25T09:39:53;7.40;;;3.27;;
7971;SDS011;4031;49.758;6.120;2023-04-25T09:42:27;4.37;;;3.10;;
7971;SDS011;4031;49.758;6.120;2023-04-25T09:44:54;5.03;;;3.70;;
7971;SDS011;4031;49.758;6.120;2023-04-25T09:47:22;6.97;;;4.17;;
7971;SDS011;4031;49.758;6.120;2023-04-25T09:49:50;4.80;;;4.23;;
7971;SDS011;4031;49.758;6.120;2023-04-25T09:52:19;4.40;;;3.93;;
7971;SDS011;4031;49.758;6.120;2023-04-25T09:54:47;5.20;;;3.23;;
7971;SDS011;4031;49.758;6.120;2023-04-25T09:57:18;4.70;;;3.40;;
7971;SDS011;4031;49.758;6.120;2023-04-25T09:59:47;4.40;;;3.37;;
7971;SDS011;4031;49.758;6.120;2023-04-25T10:02:15;6.23;;;4.00;;
7971;SDS011;4031;49.758;6.120;2023-04-25T10:04:46;6.33;;;4.60;;
7971;SDS011;4031;49.758;6.120;2023-04-25T10:07:15;3.40;;;2.97;;
7971;SDS011;4031;49.758;6.120;2023-04-25T10:09:43;5.20;;;3.40;;
7971;SDS011;4031;49.758;6.120;2023-04-25T10:12:14;4.97;;;3.63;;
7971;SDS011;4031;49.758;6.120;2023-04-25T10:14:41;5.00;;;2.70;;
7971;SDS011;4031;49.758;6.120;2023-04-25T10:17:08;4.37;;;3.33;;
7971;SDS011;4031;49.758;6.120;2023-04-25T10:19:36;3.23;;;3.03;;
7971;SDS011;4031;49.758;6.120;2023-04-25T10:24:37;4.60;;;3.40;;
7971;SDS011;4031;49.758;6.120;2023-04-25T10:27:04;3.20;;;3.00;;
7971;SDS011;4031;49.758;6.120;2023-04-25T10:29:31;5.13;;;2.87;;
7971;SDS011;4031;49.758;6.120;2023-04-25T10:31:57;3.67;;;2.67;;
7971;SDS011;4031;49.758;6.120;2023-04-25T10:34:38;5.33;;;3.17;;
7971;SDS011;4031;49.758;6.120;2023-04-25T10:37:12;5.67;;;3.10;;
7971;SDS011;4031;49.758;6.120;2023-04-25T10:39:39;2.90;;;2.60;;
7971;SDS011;4031;49.758;6.120;2023-04-25T10:42:06;7.40;;;3.20;;
7971;SDS011;4031;49.758;6.120;2023-04-25T10:44:33;3.13;;;2.50;;
7971;SDS011;4031;49.758;6.120;2023-04-25T10:47:00;5.13;;;2.87;;
7971;SDS011;4031;49.758;6.120;2023-04-25T10:49:31;4.83;;;3.03;;
7971;SDS011;4031;49.758;6.120;2023-04-25T10:54:54;6.00;;;3.57;;
7971;SDS011;4031;49.758;6.120;2023-04-25T10:57:31;6.30;;;3.60;;
7971;SDS011;4031;49.758;6.120;2023-04-25T11:00:07;5.23;;;3.10;;
7971;SDS011;4031;49.758;6.120;2023-04-25T11:02:53;5.57;;;3.83;;
7971;SDS011;4031;49.758;6.120;2023-04-25T11:05:33;4.87;;;3.40;;
7971;SDS011;4031;49.758;6.120;2023-04-25T11:08:01;7.73;;;3.97;;
7971;SDS011;4031;49.758;6.120;2023-04-25T11:10:31;3.43;;;3.13;;
7971;SDS011;4031;49.758;6.120;2023-04-25T11:13:00;6.57;;;3.90;;
7971;SDS011;4031;49.758;6.120;2023-04-25T11:15:26;4.83;;;2.80;;
7971;SDS011;4031;49.758;6.120;2023-04-25T11:17:52;5.73;;;3.83;;
7971;SDS011;4031;49.758;6.120;2023-04-25T11:20:19;8.20;;;3.80;;
7971;SDS011;4031;49.758;6.120;2023-04-25T11:22:45;4.63;;;2.80;;
7971;SDS011;4031;49.758;6.120;2023-04-25T11:25:13;5.27;;;4.13;;
7971;SDS011;4031;49.758;6.120;2023-04-25T11:27:50;4.50;;;2.93;;
7971;SDS011;4031;49.758;6.120;2023-04-25T11:30:22;3.53;;;2.50;;
7971;SDS011;4031;49.758;6.120;2023-04-25T11:32:49;5.93;;;3.27;;
7971;SDS011;4031;49.758;6.120;2023-04-25T11:35:15;8.30;;;3.80;;
7971;SDS011;4031;49.758;6.120;2023-04-25T11:37:42;4.27;;;3.87;;
7971;SDS011;4031;49.758;6.120;2023-04-25T11:40:09;5.80;;;4.00;;
7971;SDS011;4031;49.758;6.120;2023-04-25T11:42:36;4.37;;;2.90;;
7971;SDS011;4031;49.758;6.120;2023-04-25T11:45:03;8.83;;;4.10;;
7971;SDS011;4031;49.758;6.120;2023-04-25T11:47:31;5.50;;;3.17;;
7971;SDS011;4031;49.758;6.120;2023-04-25T11:49:58;4.17;;;3.47;;
7971;SDS011;4031;49.758;6.120;2023-04-25T11:52:35;3.93;;;3.50;;
7971;SDS011;4031;49.758;6.120;2023-04-25T11:55:03;4.40;;;3.10;;
7971;SDS011;4031;49.758;6.120;2023-04-25T11:57:40;5.73;;;3.27;;
7971;SDS011;4031;49.758;6.120;2023-04-25T12:00:14;3.43;;;3.13;;
7971;SDS011;4031;49.758;6.120;2023-04-25T12:02:43;3.60;;;3.07;;
7971;SDS011;4031;49.758;6.120;2023-04-25T12:05:11;5.50;;;3.70;;
7971;SDS011;4031;49.758;6.120;2023-04-25T12:07:38;3.00;;;2.80;;
7971;SDS011;4031;49.758;6.120;2023-04-25T12:10:07;5.10;;;3.20;;
7971;SDS011;4031;49.758;6.120;2023-04-25T12:12:41;5.53;;;2.97;;
7971;SDS011;4031;49.758;6.120;2023-04-25T12:17:47;3.93;;;3.00;;
7971;SDS011;4031;49.758;6.120;2023-04-25T12:20:18;5.60;;;3.03;;
7971;SDS011;4031;49.758;6.120;2023-04-25T12:22:49;4.10;;;3.17;;
7971;SDS011;4031;49.758;6.120;2023-04-25T12:30:58;4.00;;;2.40;;
7971;SDS011;4031;49.758;6.120;2023-04-25T12:33:32;4.07;;;2.70;;
7971;SDS011;4031;49.758;6.120;2023-04-25T12:36:00;4.10;;;2.83;;
7971;SDS011;4031;49.758;6.120;2023-04-25T12:38:37;4.10;;;3.17;;
7971;SDS011;4031;49.758;6.120;2023-04-25T12:41:05;5.40;;;3.17;;
7971;SDS011;4031;49.758;6.120;2023-04-25T12:43:31;3.77;;;2.70;;
7971;SDS011;4031;49.758;6.120;2023-04-25T12:45:58;4.60;;;2.67;;
7971;SDS011;4031;49.758;6.120;2023-04-25T12:48:23;2.97;;;2.20;;
7971;SDS011;4031;49.758;6.120;2023-04-25T12:50:49;3.80;;;2.43;;
7971;SDS011;4031;49.758;6.120;2023-04-25T12:53:17;3.77;;;3.47;;
7971;SDS011;4031;49.758;6.120;2023-04-25T12:55:44;3.10;;;2.83;;
7971;SDS011;4031;49.758;6.120;2023-04-25T12:58:13;2.80;;;1.90;;
7971;SDS011;4031;49.758;6.120;2023-04-25T13:00:43;2.63;;;2.43;;
7971;SDS011;4031;49.758;6.120;2023-04-25T13:03:08;3.70;;;2.80;;
7971;SDS011;4031;49.758;6.120;2023-04-25T13:05:36;2.53;;;2.33;;
7971;SDS011;4031;49.758;6.120;2023-04-25T13:08:02;6.00;;;2.90;;
7971;SDS011;4031;49.758;6.120;2023-04-25T13:10:29;3.07;;;2.20;;
7971;SDS011;4031;49.758;6.120;2023-04-25T13:12:55;4.20;;;2.73;;
7971;SDS011;4031;49.758;6.120;2023-04-25T13:15:20;3.00;;;2.70;;
7971;SDS011;4031;49.758;6.120;2023-04-25T13:17:46;4.50;;;2.50;;
7971;SDS011;4031;49.758;6.120;2023-04-25T13:20:12;5.57;;;2.53;;
7971;SDS011;4031;49.758;6.120;2023-04-25T13:22:39;2.17;;;1.97;;
7971;SDS011;4031;49.758;6.120;2023-04-25T13:25:06;3.87;;;2.13;;
7971;SDS011;4031;49.758;6.120;2023-04-25T13:27:33;3.40;;;2.87;;
7971;SDS011;4031;49.758;6.120;2023-04-25T13:30:01;4.83;;;3.00;;
7971;SDS011;4031;49.758;6.120;2023-04-25T13:32:35;4.53;;;2.40;;
7971;SDS011;4031;49.758;6.120;2023-04-25T13:35:03;3.37;;;2.47;;
7971;SDS011;4031;49.758;6.120;2023-04-25T13:37:32;2.67;;;2.30;;
7971;SDS011;4031;49.758;6.120;2023-04-25T13:40:01;2.90;;;2.47;;
7971;SDS011;4031;49.758;6.120;2023-04-25T13:42:34;3.70;;;1.63;;
7971;SDS011;4031;49.758;6.120;2023-04-25T13:45:00;5.27;;;2.60;;
7971;SDS011;4031;49.758;6.120;2023-04-25T13:47:26;2.60;;;2.00;;
7971;SDS011;4031;49.758;6.120;2023-04-25T13:49:52;4.93;;;2.60;;
7971;SDS011;4031;49.758;6.120;2023-04-25T13:52:19;5.80;;;2.13;;
7971;SDS011;4031;49.758;6.120;2023-04-25T13:54:45;4.83;;;2.10;;
7971;SDS011;4031;49.758;6.120;2023-04-25T13:57:11;2.67;;;2.33;;
7971;SDS011;4031;49.758;6.120;2023-04-25T13:59:39;3.30;;;2.30;;
7971;SDS011;4031;49.758;6.120;2023-04-25T14:02:06;4.50;;;2.00;;
7971;SDS011;4031;49.758;6.120;2023-04-25T14:04:32;3.03;;;2.20;;
7971;SDS011;4031;49.758;6.120;2023-04-25T14:06:58;2.50;;;2.30;;
7971;SDS011;4031;49.758;6.120;2023-04-25T14:09:24;2.27;;;1.60;;
7971;SDS011;4031;49.758;6.120;2023-04-25T14:11:52;1.90;;;1.60;;
7971;SDS011;4031;49.758;6.120;2023-04-25T14:14:18;3.73;;;1.87;;
7971;SDS011;4031;49.758;6.120;2023-04-25T14:16:45;5.83;;;2.73;;
7971;SDS011;4031;49.758;6.120;2023-04-25T14:19:13;5.33;;;2.30;;
7971;SDS011;4031;49.758;6.120;2023-04-25T14:21:39;6.33;;;2.93;;
7971;SDS011;4031;49.758;6.120;2023-04-25T14:24:05;2.40;;;2.20;;
7971;SDS011;4031;49.758;6.120;2023-04-25T14:26:33;3.73;;;2.10;;
7971;SDS011;4031;49.758;6.120;2023-04-25T14:29:00;2.33;;;2.03;;
7971;SDS011;4031;49.758;6.120;2023-04-25T14:31:26;2.33;;;2.20;;
7971;SDS011;4031;49.758;6.120;2023-04-25T14:33:52;3.50;;;2.73;;
7971;SDS011;4031;49.758;6.120;2023-04-25T14:36:18;3.00;;;2.50;;
7971;SDS011;4031;49.758;6.120;2023-04-25T14:38:44;3.60;;;2.57;;
7971;SDS011;4031;49.758;6.120;2023-04-25T14:41:10;3.33;;;2.03;;
7971;SDS011;4031;49.758;6.120;2023-04-25T14:43:36;2.53;;;1.80;;
7971;SDS011;4031;49.758;6.120;2023-04-25T14:46:02;6.40;;;2.20;;
7971;SDS011;4031;49.758;6.120;2023-04-25T14:48:28;2.87;;;2.17;;
7971;SDS011;4031;49.758;6.120;2023-04-25T14:50:54;3.63;;;2.40;;
7971;SDS011;4031;49.758;6.120;2023-04-25T14:53:21;3.97;;;2.27;;
7971;SDS011;4031;49.758;6.120;2023-04-25T14:55:48;3.33;;;2.43;;
7971;SDS011;4031;49.758;6.120;2023-04-25T14:58:14;3.30;;;2.50;;
7971;SDS011;4031;49.758;6.120;2023-04-25T15:00:40;2.80;;;2.27;;
7971;SDS011;4031;49.758;6.120;2023-04-25T15:03:05;4.43;;;2.13;;
7971;SDS011;4031;49.758;6.120;2023-04-25T15:05:32;3.73;;;1.93;;
7971;SDS011;4031;49.758;6.120;2023-04-25T15:07:59;3.30;;;2.07;;
7971;SDS011;4031;49.758;6.120;2023-04-25T15:10:25;4.03;;;2.20;;
7971;SDS011;4031;49.758;6.120;2023-04-25T15:12:51;3.13;;;2.03;;
7971;SDS011;4031;49.758;6.120;2023-04-25T15:15:18;4.23;;;3.20;;
7971;SDS011;4031;49.758;6.120;2023-04-25T15:17:44;4.90;;;2.70;;
7971;SDS011;4031;49.758;6.120;2023-04-25T15:20:10;3.70;;;2.47;;
7971;SDS011;4031;49.758;6.120;2023-04-25T15:22:40;5.53;;;2.50;;
7971;SDS011;4031;49.758;6.120;2023-04-25T15:25:08;2.33;;;1.90;;